Time;durP1;ratioP1;P1;durP2;ratioP2;P2;SDS_P1;SDS_P2;PMS_P1;PMS_P2;Temp;Humidity;BMP_temperature;BMP_pressure;BME280_temperature;BME280_humidity;BME280_pressure;Samples;Min_cycle;Max_cycle;Signal;HPM_P1;HPM_P2
2022/05/11 00:00:49;;;;;;;;;;;15.90;97.10;;;;;;8378885;28;19925;-74
2022/05/11 00:04:51;;;;;;;;;;;16.00;97.00;;;;;;8380390;28;19924;-74
2022/05/11 00:08:53;;;;;;;;;;;16.00;97.00;;;;;;8374423;28;19920;-74
2022/05/11 00:12:57;;;;;;;;;;;16.00;97.10;;;;;;8382941;28;19921;-74
2022/05/11 00:16:59;;;;;;;;;;;16.00;97.00;;;;;;8386219;28;19924;-74
2022/05/11 00:21:02;;;;;;;;;;;16.00;97.00;;;;;;8380787;28;19951;-74
2022/05/11 00:25:05;;;;;;;;;;;16.00;96.90;;;;;;8402098;28;21056;-74
2022/05/11 00:29:07;;;;;;;;;;;16.00;97.00;;;;;;8385940;28;19924;-73
2022/05/11 00:33:11;;;;;;;;;;;16.00;97.10;;;;;;8379923;28;19978;-74
2022/05/11 00:37:12;;;;;;;;;;;16.00;97.20;;;;;;8386093;28;19943;-74
2022/05/11 00:41:14;;;;;;;;;;;15.90;97.20;;;;;;8389049;28;19924;-74
2022/05/11 00:45:16;;;;;;;;;;;15.90;97.30;;;;;;8405893;28;19943;-74
2022/05/11 00:49:35;;;;;;;;;;;15.90;97.50;;;;;;8380468;28;19924;-75
2022/05/11 00:53:38;;;;;;;;;;;15.80;97.50;;;;;;8373303;28;19928;-74
2022/05/11 00:57:57;;;;;;;;;;;15.80;97.60;;;;;;8384535;28;19920;-74
2022/05/11 01:02:03;;;;;;;;;;;15.80;97.50;;;;;;8370919;28;19943;-74
2022/05/11 01:06:07;;;;;;;;;;;15.70;97.70;;;;;;8380175;28;19928;-74
2022/05/11 01:10:09;;;;;;;;;;;15.60;97.90;;;;;;8377857;28;20467;-73
2022/05/11 01:14:12;;;;;;;;;;;15.50;97.90;;;;;;8385832;28;19928;-74
2022/05/11 01:18:14;;;;;;;;;;;15.50;98.30;;;;;;8379356;28;19928;-74
2022/05/11 01:22:33;;;;;;;;;;;15.40;99.00;;;;;;8400400;28;19932;-74
2022/05/11 01:26:35;;;;;;;;;;;15.40;98.90;;;;;;8382668;28;20240;-74
2022/05/11 01:30:38;;;;;;;;;;;15.40;98.90;;;;;;8381308;28;20386;-74
2022/05/11 01:34:40;;;;;;;;;;;15.50;98.40;;;;;;8382511;28;20006;-74
2022/05/11 01:38:46;;;;;;;;;;;15.50;98.90;;;;;;8384840;28;19921;-74
2022/05/11 01:42:50;;;;;;;;;;;15.50;98.80;;;;;;8373534;28;19935;-74
2022/05/11 01:46:53;;;;;;;;;;;15.60;98.50;;;;;;8374057;28;19948;-74
2022/05/11 01:50:55;;;;;;;;;;;15.60;98.50;;;;;;8377221;28;20280;-74
2022/05/11 01:54:57;;;;;;;;;;;15.60;98.60;;;;;;8411354;27;20277;-74
2022/05/11 01:58:59;;;;;;;;;;;15.70;98.50;;;;;;8382052;28;19920;-74
2022/05/11 02:03:00;;;;;;;;;;;15.70;98.60;;;;;;8380353;28;19932;-74
2022/05/11 02:11:23;;;;;;;;;;;15.70;98.80;;;;;;8379129;28;19920;-74
2022/05/11 02:15:25;;;;;;;;;;;15.70;98.90;;;;;;8379589;28;19931;-73
2022/05/11 02:19:28;;;;;;;;;;;15.70;98.90;;;;;;8370620;28;19943;-74
2022/05/11 02:23:30;;;;;;;;;;;15.70;99.00;;;;;;8385295;28;19920;-73
2022/05/11 02:27:32;;;;;;;;;;;15.70;99.10;;;;;;8369244;28;19936;-73
2022/05/11 02:31:33;;;;;;;;;;;15.70;99.10;;;;;;8377172;28;19927;-74
2022/05/11 02:35:36;;;;;;;;;;;15.70;99.30;;;;;;8377390;28;19928;-74
2022/05/11 02:39:37;;;;;;;;;;;15.70;99.20;;;;;;8373377;28;19928;-73
2022/05/11 02:43:39;;;;;;;;;;;15.70;99.30;;;;;;8384795;28;19928;-74
2022/05/11 02:47:41;;;;;;;;;;;15.60;99.30;;;;;;8377222;28;21294;-74
2022/05/11 02:51:43;;;;;;;;;;;15.60;99.50;;;;;;8376699;28;19928;-74
2022/05/11 02:55:45;;;;;;;;;;;15.60;99.40;;;;;;8378487;28;19929;-74
2022/05/11 02:59:49;;;;;;;;;;;15.60;99.50;;;;;;8370912;28;20394;-74
2022/05/11 03:03:50;;;;;;;;;;;15.60;99.50;;;;;;8383807;28;19946;-74
2022/05/11 03:07:52;;;;;;;;;;;15.60;99.40;;;;;;8371768;28;19942;-73
2022/05/11 03:11:53;;;;;;;;;;;15.60;99.50;;;;;;8379476;28;19957;-74
2022/05/11 03:15:55;;;;;;;;;;;15.50;99.40;;;;;;8376641;28;19936;-74
2022/05/11 03:19:57;;;;;;;;;;;15.40;99.90;;;;;;8390872;28;19932;-73
2022/05/11 03:23:59;;;;;;;;;;;15.30;99.90;;;;;;8372465;28;19932;-73
2022/05/11 03:28:01;;;;;;;;;;;15.40;99.90;;;;;;8386911;28;19932;-74
2022/05/11 03:36:23;;;;;;;;;;;15.30;99.80;;;;;;8379005;28;20299;-73
2022/05/11 03:40:24;;;;;;;;;;;15.30;99.90;;;;;;8379932;28;20386;-73
2022/05/11 03:44:27;;;;;;;;;;;15.30;99.80;;;;;;8390599;28;19954;-74
2022/05/11 03:48:29;;;;;;;;;;;15.30;99.90;;;;;;8397405;28;19952;-74
2022/05/11 03:52:31;;;;;;;;;;;15.30;99.90;;;;;;8386096;28;20026;-74
2022/05/11 03:56:33;;;;;;;;;;;15.30;99.70;;;;;;8383729;28;19920;-74
2022/05/11 04:00:35;;;;;;;;;;;15.30;99.60;;;;;;8382542;28;19928;-74
2022/05/11 04:04:36;;;;;;;;;;;15.30;99.90;;;;;;8385997;28;19932;-74
2022/05/11 04:08:38;;;;;;;;;;;15.20;99.70;;;;;;8372552;28;19924;-74
2022/05/11 04:12:40;;;;;;;;;;;15.30;99.70;;;;;;8380225;28;20241;-75
2022/05/11 04:16:43;;;;;;;;;;;15.30;99.90;;;;;;8376966;28;19921;-74
2022/05/11 04:20:45;;;;;;;;;;;15.20;99.60;;;;;;8380558;28;19925;-74
2022/05/11 04:24:47;;;;;;;;;;;15.20;99.60;;;;;;8395674;28;19925;-74
2022/05/11 04:28:49;;;;;;;;;;;15.30;99.50;;;;;;8406899;28;19927;-73
2022/05/11 04:32:50;;;;;;;;;;;15.30;99.50;;;;;;8397451;28;19920;-74
2022/05/11 04:36:52;;;;;;;;;;;15.30;99.70;;;;;;8386240;28;19920;-74
2022/05/11 04:40:54;;;;;;;;;;;15.30;99.70;;;;;;8384125;28;19928;-73
2022/05/11 04:44:56;;;;;;;;;;;15.30;99.40;;;;;;8383664;28;20261;-74
2022/05/11 04:49:16;;;;;;;;;;;15.30;99.80;;;;;;8385393;28;19932;-74
2022/05/11 04:53:18;;;;;;;;;;;15.30;99.40;;;;;;8401830;28;20030;-74
2022/05/11 04:57:20;;;;;;;;;;;15.30;99.50;;;;;;8387341;28;19928;-75
2022/05/11 05:01:22;;;;;;;;;;;15.20;99.50;;;;;;8387714;28;19954;-74
2022/05/11 05:05:23;;;;;;;;;;;15.20;99.30;;;;;;8367259;28;19971;-75
2022/05/11 05:09:25;;;;;;;;;;;15.30;99.20;;;;;;8392041;28;19924;-75
2022/05/11 05:13:27;;;;;;;;;;;15.20;99.00;;;;;;8384178;28;20376;-75
2022/05/11 05:17:28;;;;;;;;;;;15.20;99.00;;;;;;8387709;28;20384;-75
2022/05/11 05:21:31;;;;;;;;;;;15.20;99.00;;;;;;8384635;28;20328;-75
2022/05/11 05:25:32;;;;;;;;;;;15.20;98.90;;;;;;8371452;28;19920;-75
2022/05/11 05:33:59;;;;;;;;;;;15.40;99.00;;;;;;8370593;28;19920;-75
2022/05/11 05:38:03;;;;;;;;;;;15.50;98.70;;;;;;8378090;28;20316;-75
2022/05/11 05:42:05;;;;;;;;;;;15.60;98.60;;;;;;8396442;28;19920;-74
2022/05/11 05:46:07;;;;;;;;;;;15.60;98.40;;;;;;8374374;28;20364;-74
2022/05/11 05:50:09;;;;;;;;;;;15.60;98.40;;;;;;8398910;28;19924;-74
2022/05/11 05:54:11;;;;;;;;;;;15.60;98.40;;;;;;8396249;28;19925;-74
2022/05/11 05:58:14;;;;;;;;;;;15.60;98.00;;;;;;8377434;28;19927;-74
2022/05/11 06:02:16;;;;;;;;;;;15.60;98.10;;;;;;8382931;28;20452;-74
2022/05/11 06:06:19;;;;;;;;;;;15.60;97.80;;;;;;8381101;28;20091;-74
2022/05/11 06:10:22;;;;;;;;;;;15.60;97.70;;;;;;8352145;28;19925;-74
2022/05/11 06:14:24;;;;;;;;;;;15.60;97.40;;;;;;8347993;28;19920;-75
2022/05/11 06:18:29;;;;;;;;;;;15.60;97.60;;;;;;8352053;28;19939;-75
2022/05/11 06:22:31;;;;;;;;;;;15.60;97.60;;;;;;8349257;28;19943;-74
2022/05/11 06:26:32;;;;;;;;;;;15.60;97.80;;;;;;8360211;28;20403;-75
2022/05/11 06:30:54;;;;;;;;;;;15.70;97.90;;;;;;8358556;28;19987;-75
2022/05/11 06:34:56;;;;;;;;;;;15.70;97.40;;;;;;8353973;28;19925;-74
2022/05/11 06:38:58;;;;;;;;;;;15.70;97.50;;;;;;8352992;28;19935;-74
2022/05/11 06:43:01;;;;;;;;;;;15.70;97.10;;;;;;8355241;28;19928;-75
2022/05/11 06:47:03;;;;;;;;;;;15.80;97.50;;;;;;8362675;28;19920;-74
2022/05/11 06:51:05;;;;;;;;;;;15.90;97.80;;;;;;8357435;28;20323;-75
2022/05/11 06:59:32;;;;;;;;;;;15.90;96.80;;;;;;8355802;28;19920;-74
2022/05/11 07:03:34;;;;;;;;;;;15.90;96.60;;;;;;8358441;28;20340;-74
2022/05/11 07:07:36;;;;;;;;;;;15.90;97.10;;;;;;8368756;28;20086;-75
2022/05/11 07:12:21;;;;;;;;;;;16.00;97.40;;;;;;8378700;28;19928;-74
2022/05/11 07:16:02;;;;;;;;;;;16.10;97.10;;;;;;8355412;28;19960;-74
2022/05/11 07:20:07;;;;;;;;;;;16.20;97.40;;;;;;8365121;28;20264;-74
2022/05/11 07:24:09;;;;;;;;;;;16.30;97.80;;;;;;8388814;27;19928;-74
2022/05/11 07:28:10;;;;;;;;;;;16.40;97.30;;;;;;8362701;28;19931;-74
2022/05/11 07:32:12;;;;;;;;;;;16.50;97.00;;;;;;8376541;28;19928;-74
2022/05/11 07:36:14;;;;;;;;;;;16.60;96.80;;;;;;8359170;28;19924;-74
2022/05/11 07:40:17;;;;;;;;;;;16.70;96.90;;;;;;8376880;28;19993;-74
2022/05/11 07:44:20;;;;;;;;;;;16.70;96.20;;;;;;8359595;28;19974;-74
2022/05/11 07:48:22;;;;;;;;;;;16.80;96.30;;;;;;8377701;28;19927;-74
2022/05/11 07:52:24;;;;;;;;;;;16.90;95.90;;;;;;8357598;28;19944;-74
2022/05/11 08:00:46;;;;;;;;;;;17.00;96.60;;;;;;8357512;28;19944;-74
2022/05/11 08:04:47;;;;;;;;;;;17.20;96.80;;;;;;8353076;28;20261;-74
2022/05/11 08:08:50;;;;;;;;;;;17.30;96.90;;;;;;8360594;28;20288;-74
2022/05/11 08:12:55;;;;;;;;;;;17.40;96.40;;;;;;8365541;28;19924;-74
2022/05/11 08:16:57;;;;;;;;;;;17.40;96.20;;;;;;8350216;28;19929;-74
2022/05/11 08:20:58;;;;;;;3.10;0.90;;;17.50;96.40;;;;;;8356810;28;20292;-74
2022/05/11 08:25:00;;;;;;;1.70;0.60;;;17.50;95.70;;;;;;8360457;28;20044;-74
2022/05/11 08:29:02;;;;;;;2.60;0.80;;;17.60;95.50;;;;;;8359110;28;20083;-74
2022/05/11 08:33:19;;;;;;;1.95;0.80;;;17.70;94.80;;;;;;8374821;28;20417;-74
2022/05/11 08:37:40;;;;;;;2.55;0.70;;;17.70;95.30;;;;;;8366502;28;20095;-73
2022/05/11 08:41:52;;;;;;;3.42;0.82;;;17.70;94.50;;;;;;8377396;28;20060;-74
2022/05/11 08:46:10;;;;;;;3.13;0.90;;;17.60;94.40;;;;;;8361581;28;20056;-74
2022/05/11 08:50:19;;;;;;;2.50;0.60;;;17.60;94.90;;;;;;8355863;28;20080;-74
2022/05/11 08:54:24;;;;;;;2.28;0.70;;;17.60;95.70;;;;;;8354938;28;20094;-74
2022/05/11 08:58:30;;;;;;;2.22;0.70;;;17.70;95.00;;;;;;8389863;28;20055;-73
2022/05/11 09:02:42;;;;;;;3.22;0.82;;;17.80;94.70;;;;;;8358570;28;20052;-74
2022/05/11 09:06:48;;;;;;;4.15;1.08;;;17.80;94.90;;;;;;8360910;28;20109;-74
2022/05/11 09:10:50;;;;;;;1.25;0.70;;;18.00;94.10;;;;;;8374914;28;20480;-74
2022/05/11 09:14:56;;;;;;;3.65;0.90;;;18.00;94.00;;;;;;8356290;28;20049;-74
2022/05/11 09:19:29;;;;;;;4.22;0.90;;;18.10;93.70;;;;;;8362202;28;20485;-74
2022/05/11 09:23:41;;;;;;;4.13;1.00;;;18.10;94.20;;;;;;8361141;28;20048;-75
2022/05/11 09:27:45;;;;;;;3.30;0.95;;;18.20;94.60;;;;;;8358430;28;20546;-74
2022/05/11 09:31:51;;;;;;;3.47;1.00;;;18.20;93.90;;;;;;8362835;28;20147;-74
2022/05/11 09:35:55;;;;;;;2.92;0.82;;;18.20;92.70;;;;;;8329752;28;20063;-75
2022/05/11 09:40:21;;;;;;;3.72;0.70;;;18.20;93.10;;;;;;8348997;28;20065;-75
2022/05/11 09:44:25;;;;;;;;;;;18.40;94.00;;;;;;8375400;28;20473;-74
2022/05/11 09:48:31;;;;;;;;;;;18.50;94.20;;;;;;8360133;28;19921;-74
2022/05/11 09:52:34;;;;;;;;;;;18.70;93.40;;;;;;8355758;28;19928;-74
2022/05/11 09:56:36;;;;;;;;;;;18.70;92.30;;;;;;8356634;28;19960;-74
2022/05/11 10:00:39;;;;;;;;;;;18.60;92.70;;;;;;8360025;28;20312;-74
2022/05/11 10:04:43;;;;;;;;;;;18.60;93.90;;;;;;8355281;28;19932;-74
2022/05/11 10:08:45;;;;;;;;;;;18.60;94.20;;;;;;8360868;28;20032;-75
2022/05/11 10:12:47;;;;;;;;;;;18.60;93.20;;;;;;8353831;28;19952;-74
2022/05/11 10:25:38;;;;;;;;;;;18.80;94.90;;;;;;8364514;28;19920;-75
2022/05/11 10:30:03;;;;;;;;;;;18.90;94.90;;;;;;8374198;28;19925;-75
2022/05/11 10:34:16;;;;;;;;;;;18.90;93.90;;;;;;8354727;28;19924;-74
2022/05/11 10:38:22;;;;;;;;;;;19.00;94.10;;;;;;8369272;28;19991;-75
2022/05/11 10:42:32;;;;;;;;;;;19.00;94.40;;;;;;8356115;28;19921;-75
2022/05/11 10:46:37;;;;;;;;;;;19.10;93.40;;;;;;8359529;28;20015;-74
2022/05/11 10:50:57;;;;;;;;;;;19.10;93.30;;;;;;8356385;28;19929;-74
2022/05/11 10:55:18;;;;;;;;;;;19.10;93.20;;;;;;8360356;28;20489;-75
2022/05/11 10:59:28;;;;;;;;;;;19.20;93.20;;;;;;8356548;28;20372;-74
2022/05/11 11:03:36;;;;;;;;;;;19.20;93.20;;;;;;8356758;28;19964;-74
2022/05/11 11:07:45;;;;;;;;;;;19.30;93.40;;;;;;8356588;28;19921;-74
2022/05/11 11:12:02;;;;;;;;;;;19.30;92.60;;;;;;8388405;28;19925;-74
2022/05/11 11:16:05;;;;;;;;;;;19.40;91.90;;;;;;8353502;28;19925;-76
2022/05/11 11:20:07;;;;;;;;;;;19.40;91.70;;;;;;8354792;28;19955;-74
2022/05/11 11:24:22;;;;;;;;;;;19.70;93.80;;;;;;8356587;28;19920;-74
2022/05/11 11:28:25;;;;;;;;;;;20.00;92.70;;;;;;8358686;28;19966;-74
2022/05/11 11:32:27;;;;;;;;;;;20.30;92.30;;;;;;8355588;28;19931;-75
2022/05/11 11:36:34;;;;;;;;;;;20.40;92.70;;;;;;8359986;28;19920;-75
2022/05/11 11:40:37;;;;;;;;;;;20.40;92.60;;;;;;8353456;28;20819;-74
2022/05/11 11:44:46;;;;;;;;;;;20.30;92.40;;;;;;8356218;28;20276;-74
2022/05/11 11:48:47;;;;;;;;;;;20.30;91.10;;;;;;8361401;28;20279;-74
2022/05/11 11:53:03;;;;;;;;;;;20.30;91.50;;;;;;8363169;28;20380;-74
2022/05/11 11:57:14;;;;;;;;;;;20.30;91.30;;;;;;8365005;28;19939;-74
2022/05/11 12:01:19;;;;;;;;;;;20.30;91.50;;;;;;8364229;28;19924;-75
2022/05/11 12:05:24;;;;;;;;;;;20.30;91.10;;;;;;8367345;28;19929;-75
2022/05/11 12:18:20;;;;;;;;;;;20.30;90.90;;;;;;8357132;28;19954;-74
2022/05/11 12:22:25;;;;;;;;;;;20.40;90.90;;;;;;8358077;28;19924;-74
2022/05/11 12:26:28;;;;;;;;;;;20.40;91.50;;;;;;8357981;28;19940;-74
2022/05/11 12:30:30;;;;;;;;;;;20.40;91.30;;;;;;8356465;28;20031;-74
2022/05/11 12:34:38;;;;;;;;;;;20.40;91.30;;;;;;8360516;28;19951;-74
2022/05/11 12:38:40;;;;;;;;;;;20.50;91.30;;;;;;8354998;28;19936;-74
2022/05/11 12:42:45;;;;;;;;;;;20.60;91.90;;;;;;8350741;28;20055;-74
2022/05/11 12:46:47;;;;;;;;;;;20.70;91.20;;;;;;8372307;28;19946;-73
2022/05/11 12:50:58;;;;;;;;;;;20.70;91.30;;;;;;8369089;28;20192;-74
2022/05/11 12:55:02;;;;;;;;;;;20.70;91.20;;;;;;8354401;28;19927;-74
2022/05/11 12:59:05;;;;;;;;;;;20.80;91.60;;;;;;8350185;28;19928;-73
2022/05/11 13:03:20;;;;;;;;;;;20.70;91.30;;;;;;8351105;28;19928;-74
2022/05/11 13:07:28;;;;;;;;;;;20.70;91.20;;;;;;8382042;27;19931;-74
2022/05/11 13:11:31;;;;;;;;;;;20.80;91.70;;;;;;8353170;28;20663;-74
2022/05/11 13:15:38;;;;;;;;;;;20.80;91.70;;;;;;8351507;28;19929;-73
2022/05/11 13:19:40;;;;;;;;;;;20.90;91.60;;;;;;8344469;28;19970;-73
2022/05/11 13:23:48;;;;;;;;;;;21.00;91.50;;;;;;8359285;28;20284;-74
2022/05/11 13:27:50;;;;;;;;;;;21.10;92.00;;;;;;8356623;28;20375;-74
2022/05/11 13:32:03;;;;;;;;;;;21.20;91.20;;;;;;8373229;28;20372;-74
2022/05/11 13:36:14;;;;;;;;;;;21.30;91.60;;;;;;8354641;28;19925;-73
2022/05/11 13:40:25;;;;;;;;;;;21.50;91.60;;;;;;8358226;28;19924;-73
2022/05/11 13:44:37;;;;;;;;;;;21.50;91.20;;;;;;8356919;28;19927;-74
2022/05/11 13:48:44;;;;;;;;;;;21.50;91.20;;;;;;8357676;28;19928;-73
2022/05/11 13:52:51;;;;;;;;;;;21.70;91.90;;;;;;8356120;28;19936;-74
2022/05/11 13:56:57;;;;;;;;;;;21.70;91.30;;;;;;8355384;28;20364;-74
2022/05/11 14:01:02;;;;;;;;;;;21.90;90.80;;;;;;8358510;28;19920;-73
2022/05/11 14:05:05;;;;;;;;;;;21.90;91.90;;;;;;8359720;28;20012;-74
2022/05/11 14:09:07;;;;;;;;;;;21.90;90.80;;;;;;8357898;28;19920;-73
2022/05/11 14:13:09;;;;;;;;;;;21.70;90.70;;;;;;8361133;28;19927;-74
2022/05/11 14:17:12;;;;;;;;;;;21.60;91.20;;;;;;8355346;28;19924;-73
2022/05/11 14:21:13;;;;;;;;;;;21.50;91.00;;;;;;8370614;28;19921;-74
2022/05/11 14:25:16;;;;;;;;;;;21.50;91.20;;;;;;8356214;28;19924;-74
2022/05/11 14:29:37;;;;;;;;;;;21.50;91.40;;;;;;8350376;28;19928;-74
2022/05/11 14:33:39;;;;;;;;;;;21.40;91.50;;;;;;8351120;28;19927;-74
2022/05/11 14:37:41;;;;;;;;;;;21.40;91.10;;;;;;8347868;28;20380;-74
2022/05/11 14:41:43;;;;;;;;;;;21.40;91.30;;;;;;8344308;28;20354;-74
2022/05/11 14:45:48;;;;;;;;;;;21.30;91.10;;;;;;8352046;28;19986;-74
2022/05/11 14:49:50;;;;;;;;;;;21.30;91.20;;;;;;8351909;28;20375;-74
2022/05/11 14:53:52;;;;;;;;;;;21.30;91.60;;;;;;8356462;28;20011;-74
2022/05/11 15:02:13;;;;;;;;;;;21.40;91.90;;;;;;8355103;28;25132;-74
2022/05/11 15:06:17;;;;;;;;;;;21.50;92.20;;;;;;8357392;28;19933;-74
2022/05/11 15:10:19;;;;;;;;;;;21.60;92.30;;;;;;8355524;28;19931;-74
2022/05/11 15:14:27;;;;;;;;;;;21.70;92.80;;;;;;8356546;28;19943;-73
2022/05/11 15:18:29;;;;;;;;;;;21.80;92.90;;;;;;8358682;28;20041;-74
2022/05/11 15:22:32;;;;;;;;;;;21.90;92.80;;;;;;8355365;28;19936;-74
2022/05/11 15:26:33;;;;;;;;;;;22.10;93.20;;;;;;8358412;28;19921;-73
2022/05/11 15:30:36;;;;;;;;;;;22.20;93.00;;;;;;8363909;28;19940;-74
2022/05/11 15:34:42;;;;;;;;;;;22.30;92.90;;;;;;8363901;28;20057;-74
2022/05/11 15:38:44;;;;;;;;;;;22.40;92.90;;;;;;8361090;28;19924;-74
2022/05/11 15:42:46;;;;;;;;;;;22.60;91.90;;;;;;8361247;28;20296;-74
2022/05/11 15:46:47;;;;;;;;;;;22.80;92.60;;;;;;8363657;28;20402;-74
2022/05/11 15:50:49;;;;;;;;;;;22.90;91.70;;;;;;8363958;28;19929;-74
2022/05/11 15:54:51;;;;;;;;;;;22.70;91.50;;;;;;8391149;27;19936;-74
2022/05/11 15:58:52;;;;;;;;;;;22.40;92.10;;;;;;8369928;28;20344;-74
2022/05/11 16:02:54;;;;;;;;;;;22.20;92.10;;;;;;8361793;28;19921;-74
2022/05/11 16:06:56;;;;;;;;;;;22.30;92.00;;;;;;8360749;28;19936;-74
2022/05/11 16:10:59;;;;;;;;;;;22.20;92.20;;;;;;8363989;28;20257;-74
2022/05/11 16:15:02;;;;;;;;;;;22.10;91.80;;;;;;8377753;28;19928;-74
2022/05/11 16:23:24;;;;;;;;;;;21.50;91.30;;;;;;8359837;28;19936;-74
2022/05/11 16:27:26;;;;;;;;;;;21.20;91.20;;;;;;8375726;28;19932;-74
2022/05/11 16:31:28;;;;;;;;;;;20.90;91.40;;;;;;8357964;28;20019;-73
2022/05/11 16:35:30;;;;;;;;;;;20.80;91.40;;;;;;8371412;28;19957;-74
2022/05/11 16:39:32;;;;;;;;;;;20.60;91.50;;;;;;8354942;28;19925;-74
2022/05/11 16:43:34;;;;;;;;;;;20.50;91.90;;;;;;8358243;28;19967;-74
2022/05/11 16:47:36;;;;;;;;;;;20.30;91.80;;;;;;8359617;28;19921;-74
2022/05/11 16:51:43;;;;;;;;;;;20.20;92.40;;;;;;8360083;28;19921;-73
2022/05/11 16:55:47;;;;;;;;;;;20.00;92.20;;;;;;8351993;28;19967;-74
2022/05/11 16:59:48;;;;;;;;;;;19.80;92.30;;;;;;8350658;28;19924;-75
2022/05/11 17:03:50;;;;;;;;;;;19.70;93.00;;;;;;8343606;28;19936;-74
2022/05/11 17:07:52;;;;;;;;;;;19.60;93.00;;;;;;8358686;28;19969;-74
2022/05/11 17:11:54;;;;;;;;;;;19.50;92.80;;;;;;8373273;28;19924;-74
2022/05/11 17:15:58;;;;;;;;;;;19.40;93.10;;;;;;8371483;28;20008;-74
2022/05/11 17:20:00;;;;;;;;;;;19.40;93.30;;;;;;8378608;28;19921;-74
2022/05/11 17:24:02;;;;;;;;;;;19.30;92.70;;;;;;8355289;28;19964;-74
2022/05/11 17:28:08;;;;;;;;;;;19.20;92.90;;;;;;8359218;28;19920;-73
2022/05/11 17:32:10;;;;;;;;;;;19.10;92.90;;;;;;8360603;28;19925;-73
2022/05/11 17:36:12;;;;;;;;;;;19.10;92.90;;;;;;8361499;28;19925;-74
2022/05/11 17:40:14;;;;;;;;;;;19.10;93.10;;;;;;8353073;28;19991;-74
2022/05/11 17:44:15;;;;;;;;;;;19.10;93.00;;;;;;8370319;28;19931;-74
2022/05/11 17:48:17;;;;;;;;;;;19.00;92.80;;;;;;8352640;28;19939;-74
2022/05/11 17:52:20;;;;;;;;;;;19.00;93.20;;;;;;8353027;28;20601;-74
2022/05/11 17:56:21;;;;;;;;;;;19.00;93.40;;;;;;8347256;28;19935;-74
2022/05/11 18:00:25;;;;;;;;;;;18.90;93.60;;;;;;8347936;28;19935;-74
2022/05/11 18:04:26;;;;;;;;;;;18.90;93.50;;;;;;8351849;28;19939;-74
2022/05/11 18:08:28;;;;;;;;;;;18.80;93.60;;;;;;8350572;28;20324;-73
2022/05/11 18:12:30;;;;;;;;;;;18.70;93.90;;;;;;8353683;28;20032;-74
2022/05/11 18:16:31;;;;;;;;;;;18.70;93.80;;;;;;8348419;28;20031;-74
2022/05/11 18:20:35;;;;;;;;;;;18.60;94.10;;;;;;8350415;28;20379;-74
2022/05/11 18:24:36;;;;;;;;;;;18.50;93.90;;;;;;8352724;28;19931;-73
2022/05/11 18:28:38;;;;;;;;;;;18.50;94.00;;;;;;8353189;28;19928;-74
2022/05/11 18:32:40;;;;;;;;;;;18.50;94.20;;;;;;8352436;28;19935;-73
2022/05/11 18:36:41;;;;;;;;;;;18.50;94.10;;;;;;8371761;28;19924;-74
2022/05/11 18:40:43;;;;;;;;;;;18.50;94.20;;;;;;8366785;28;19967;-73
2022/05/11 18:44:45;;;;;;;;;;;18.50;94.60;;;;;;8354316;28;20353;-74
2022/05/11 18:48:46;;;;;;;;;;;18.50;94.60;;;;;;8366620;28;19967;-74
2022/05/11 18:52:48;;;;;;;;;;;18.50;94.70;;;;;;8364183;28;21094;-74
2022/05/11 18:56:50;;;;;;;;;;;18.60;94.40;;;;;;8343265;28;19997;-73
2022/05/11 19:00:52;;;;;;;;;;;18.60;94.50;;;;;;8346402;28;19967;-74
2022/05/11 19:04:53;;;;;;;;;;;18.60;94.60;;;;;;8354682;28;20367;-73
2022/05/11 19:08:55;;;;;;;;;;;18.60;94.90;;;;;;8358557;28;19975;-73
2022/05/11 19:12:57;;;;;;;;;;;18.60;94.80;;;;;;8371438;28;20577;-73
2022/05/11 19:16:58;;;;;;;;;;;18.50;95.00;;;;;;8345829;28;20042;-74
2022/05/11 19:21:00;;;;;;;;;;;18.50;94.90;;;;;;8354203;28;20365;-75
2022/05/11 19:25:01;;;;;;;;;;;18.50;95.10;;;;;;8361708;28;19959;-73
2022/05/11 19:29:04;;;;;;;;;;;18.40;95.10;;;;;;8360094;28;19935;-73
2022/05/11 19:33:06;;;;;;;;;;;18.40;95.20;;;;;;8362648;28;19951;-74
2022/05/11 19:37:08;;;;;;;;;;;18.40;95.40;;;;;;8361707;28;19943;-73
2022/05/11 19:41:10;;;;;;;;;;;18.40;95.40;;;;;;8358722;28;20602;-73
2022/05/11 19:45:12;;;;;;;;;;;18.40;95.40;;;;;;8351252;28;19956;-73
2022/05/11 19:49:14;;;;;;;;;;;18.40;95.50;;;;;;8358911;28;19927;-74
2022/05/11 19:53:15;;;;;;;;;;;18.30;95.50;;;;;;8354650;28;22802;-74
2022/05/11 19:57:17;;;;;;;;;;;18.30;96.10;;;;;;8361851;28;19960;-74
2022/05/11 20:01:19;;;;;;;;;;;18.30;96.10;;;;;;8379424;28;19963;-73
2022/05/11 20:05:20;;;;;;;;;;;18.30;97.20;;;;;;8357662;28;19924;-74
2022/05/11 20:09:23;;;;;;;;;;;18.10;97.80;;;;;;8360689;28;20037;-73
2022/05/11 20:13:24;;;;;;;;;;;18.00;97.40;;;;;;8360735;28;19960;-73
2022/05/11 20:17:26;;;;;;;;;;;17.90;98.90;;;;;;8360837;28;20961;-73
2022/05/11 20:21:28;;;;;;;;;;;17.70;99.60;;;;;;8376625;28;19954;-73
2022/05/11 20:25:29;;;;;;;;;;;17.50;99.90;;;;;;8370117;28;19974;-73
2022/05/11 20:29:31;;;;;;;;;;;17.30;99.90;;;;;;8364033;28;19936;-74
2022/05/11 20:37:53;;;;;;;;;;;17.10;99.90;;;;;;8365497;28;20047;-74
2022/05/11 20:41:55;;;;;;;;;;;17.00;99.90;;;;;;8369800;28;19920;-74
2022/05/11 20:45:56;;;;;;;;;;;16.70;99.90;;;;;;8380828;28;19963;-73
2022/05/11 20:49:58;;;;;;;;;;;16.40;99.90;;;;;;8360793;28;20395;-74
2022/05/11 20:54:00;;;;;;;;;;;16.00;99.90;;;;;;8363691;28;19964;-73
2022/05/11 20:58:03;;;;;;;;;;;15.60;99.90;;;;;;8355542;28;19921;-73
2022/05/11 21:02:06;;;;;;;;;;;15.20;99.90;;;;;;8366090;28;19968;-74
2022/05/11 21:06:07;;;;;;;;;;;15.00;99.90;;;;;;8377053;28;20028;-74
2022/05/11 21:10:11;;;;;;;;;;;14.90;99.90;;;;;;8377927;28;19929;-74
2022/05/11 21:14:13;;;;;;;;;;;14.80;99.90;;;;;;8374434;28;19931;-73
2022/05/11 21:18:14;;;;;;;;;;;14.70;99.90;;;;;;8379885;28;20618;-73
2022/05/11 21:22:16;;;;;;;;;;;14.60;99.90;;;;;;8386921;28;19928;-73
2022/05/11 21:26:18;;;;;;;;;;;14.60;99.90;;;;;;8382897;28;20257;-73
2022/05/11 21:30:20;;;;;;;;;;;14.60;99.90;;;;;;8372867;28;19940;-73
2022/05/11 21:34:21;;;;;;;;;;;14.50;99.90;;;;;;8372774;28;19920;-74
2022/05/11 21:38:23;;;;;;;;;;;14.50;99.90;;;;;;8391204;28;19951;-73
2022/05/11 21:42:24;;;;;;;;;;;14.50;99.90;;;;;;8403539;28;20402;-74
2022/05/11 21:46:28;;;;;;;;;;;14.40;99.90;;;;;;8383471;28;20008;-74
2022/05/11 21:50:31;;;;;;;;;;;14.40;99.90;;;;;;8379253;28;19963;-73
2022/05/11 21:54:32;;;;;;;;;;;14.40;99.90;;;;;;8379770;28;19920;-73
2022/05/11 21:58:34;;;;;;;;;;;14.40;99.90;;;;;;8385475;28;19957;-73
2022/05/11 22:02:36;;;;;;;;;;;14.40;99.90;;;;;;8375932;28;19920;-74
2022/05/11 22:06:37;;;;;;;;;;;14.50;99.90;;;;;;8397813;28;20375;-74
2022/05/11 22:10:39;;;;;;;;;;;14.50;99.90;;;;;;8371207;28;19935;-74
2022/05/11 22:14:41;;;;;;;;;;;14.40;99.90;;;;;;8378647;28;20388;-73
2022/05/11 22:18:43;;;;;;;;;;;14.40;99.90;;;;;;8384899;28;19928;-73
2022/05/11 22:22:44;;;;;;;;;;;14.40;99.90;;;;;;8382686;28;20008;-74
2022/05/11 22:26:46;;;;;;;;;;;14.40;99.90;;;;;;8376755;28;19935;-74
2022/05/11 22:30:48;;;;;;;;;;;14.40;99.90;;;;;;8385977;28;19927;-74
2022/05/11 22:34:49;;;;;;;;;;;14.40;99.90;;;;;;8393536;28;19924;-74
2022/05/11 22:38:51;;;;;;;;;;;14.30;99.90;;;;;;8376403;28;20379;-74
2022/05/11 22:42:53;;;;;;;;;;;14.30;99.90;;;;;;8387131;28;19924;-74
2022/05/11 22:46:54;;;;;;;;;;;14.20;99.90;;;;;;8385841;28;19920;-75
2022/05/11 22:50:56;;;;;;;;;;;14.20;99.90;;;;;;8397361;28;20007;-75
2022/05/11 22:55:04;;;;;;;;;;;14.10;99.90;;;;;;8379032;28;20022;-74
2022/05/11 22:59:05;;;;;;;;;;;14.10;99.90;;;;;;8390478;28;19932;-75
2022/05/11 23:03:07;;;;;;;;;;;14.00;99.90;;;;;;8387866;28;19967;-75
2022/05/11 23:07:09;;;;;;;;;;;14.00;99.90;;;;;;8377813;28;19939;-75
2022/05/11 23:11:11;;;;;;;;;;;14.00;99.90;;;;;;8385169;28;19921;-74
2022/05/11 23:15:12;;;;;;;;;;;13.90;99.90;;;;;;8381447;28;19929;-75
2022/05/11 23:19:14;;;;;;;;;;;13.80;99.90;;;;;;8386029;28;19920;-75
2022/05/11 23:23:16;;;;;;;;;;;13.70;99.90;;;;;;8382420;28;19931;-75
2022/05/11 23:27:19;;;;;;;;;;;13.70;99.90;;;;;;8389975;28;19924;-76
2022/05/11 23:31:20;;;;;;;;;;;13.70;99.90;;;;;;8392911;28;19962;-75
2022/05/11 23:35:22;;;;;;;;;;;13.60;99.90;;;;;;8385307;28;20342;-75
2022/05/11 23:39:24;;;;;;;;;;;13.50;99.90;;;;;;8407252;28;19924;-74
2022/05/11 23:43:25;;;;;;;;;;;13.50;99.90;;;;;;8396732;28;19968;-75
2022/05/11 23:47:27;;;;;;;;;;;13.40;99.90;;;;;;8388351;28;19940;-75
2022/05/11 23:51:28;;;;;;;;;;;13.40;99.90;;;;;;8395756;28;19952;-75
2022/05/11 23:55:30;;;;;;;;;;;13.30;99.90;;;;;;8386210;28;19920;-75
2022/05/11 23:59:32;;;;;;;;;;;13.20;99.90;;;;;;8402332;28;19927;-75
